Flamingo Lodge, Florida
Current Conditions -  °F | °C
As of 10:58 PM on Tuesday 21 Oct 2014 (Local Time) from KHST Reporting Station
Clear Clear  
Wind Chill: 73°   Ceiling: Unl
Heat Index: 73°   Visibility: 10mi
Dew Point: 71°   Wind: 2mph
Humidity: 94%   Direction: 160°SSE
Pressure: 29.97"   Gusts: NA
Location:  25.3018°N, 80.7387°W
Report Text: KHST 220258Z AUTO 16002KT 10SM CLR 23/22 A2997 RMK AO2 SLP152 T02290219 50006
Loading
Personal Weather Stations






























Interactive Weather Map
Tropical Storm Tracking
New forecast layout! Learn more

10-Day Weather Forecast

Advertisements
Track Severe Weather on mobile